McClure, Ohio
Current Conditions -  °F | °C
As of 5:52 AM on Thursday 18 Dec 2014 (Local Time) from KTOL Reporting Station
Overcast Overcast  
Wind Chill: 22°   Ceiling: 2600
Heat Index: 29°   Visibility: 10mi
Dew Point: 22°   Wind: 7mph
Humidity: 75%   Direction: 260°W
Pressure: 30.22"   Gusts: NA
Location:  41.37°N, 83.94°W
Report Text: KTOL 181052Z 26006KT 10SM OVC026 M02/M06 A3022 RMK AO2 SLP241 T10171056
Loading
Personal Weather Stations






























Interactive Weather Map New forecast layout! Learn more

10-Day Weather Forecast

Advertisements
Track Severe Weather on mobile